Time,TemperatureF,DewpointF,PressureIn,WindDirection,WindDirectionDegrees,WindSpeedMPH,WindSpeedGustMPH,Humidity,HourlyPrecipIn,Conditions,Clouds,dailyrainin,SolarRadiationWatts/m^2,SoftwareType,DateUTC
2013-07-05 00:02:00,76.0,57.0,29.96,West,273,2.0,5.0,50,-99.99,,,-99.99,0.000000,,2013-07-05 06:02:00,
2013-07-05 00:13:00,75.0,57.0,29.96,West,266,3.0,6.0,52,-99.99,,,-99.99,0.000000,,2013-07-05 06:13:00,
2013-07-05 00:23:00,77.0,54.0,29.96,WNW,290,4.0,7.0,45,-99.99,,,-99.99,0.000000,,2013-07-05 06:23:00,
2013-07-05 00:34:00,77.0,54.0,29.96,WNW,290,4.0,7.0,45,-99.99,,,-99.99,0.000000,,2013-07-05 06:34:00,
2013-07-05 00:44:00,75.0,54.0,29.96,WNW,285,6.0,8.0,47,-99.99,,,-99.99,0.000000,,2013-07-05 06:44:00,
2013-07-05 01:02:00,74.0,55.0,29.96,WNW,294,5.0,7.0,52,-99.99,,,-99.99,0.000000,,2013-07-05 07:02:00,
2013-07-05 01:12:00,73.0,55.0,29.97,WNW,282,6.0,8.0,53,-99.99,,,-99.99,0.000000,,2013-07-05 07:12:00,
2013-07-05 01:23:00,73.0,54.0,29.97,WNW,288,7.0,10.0,51,-99.99,,,-99.99,0.000000,,2013-07-05 07:23:00,
2013-07-05 01:34:00,73.0,54.0,29.97,WNW,288,7.0,10.0,51,-99.99,,,-99.99,0.000000,,2013-07-05 07:34:00,
2013-07-05 01:43:00,74.0,52.0,29.97,West,278,6.0,8.0,46,-99.99,,,-99.99,0.000000,,2013-07-05 07:43:00,
2013-07-05 02:02:00,74.0,53.0,29.96,WNW,287,5.0,8.0,47,-99.99,,,-99.99,0.000000,,2013-07-05 08:02:00,
2013-07-05 02:12:00,74.0,53.0,29.96,NW,309,3.0,6.0,46,-99.99,,,-99.99,0.000000,,2013-07-05 08:12:00,
2013-07-05 02:23:00,73.0,53.0,29.96,WNW,290,3.0,5.0,49,-99.99,,,-99.99,0.000000,,2013-07-05 08:23:00,
2013-07-05 02:33:00,73.0,53.0,29.96,WNW,290,3.0,5.0,49,-99.99,,,-99.99,0.000000,,2013-07-05 08:33:00,
2013-07-05 02:43:00,74.0,51.0,29.96,West,275,3.0,6.0,44,-99.99,,,-99.99,0.000000,,2013-07-05 08:43:00,
2013-07-05 02:57:00,74.0,51.0,29.96,West,275,3.0,6.0,44,-99.99,,,-99.99,0.000000,,2013-07-05 08:57:00,
2013-07-05 03:06:00,74.0,51.0,29.96,West,275,3.0,6.0,44,-99.99,,,-99.99,0.000000,,2013-07-05 09:06:00,
2013-07-05 03:15:00,73.0,54.0,29.96,WSW,250,3.0,5.0,51,-99.99,,,-99.99,0.000000,,2013-07-05 09:15:00,
2013-07-05 03:25:00,73.0,54.0,29.96,WSW,250,3.0,5.0,51,-99.99,,,-99.99,0.000000,,2013-07-05 09:25:00,
2013-07-05 03:37:00,73.0,54.0,29.96,WSW,250,3.0,5.0,51,-99.99,,,-99.99,0.000000,,2013-07-05 09:37:00,
2013-07-05 03:46:00,71.0,53.0,29.96,West,281,3.0,6.0,54,-99.99,,,-99.99,0.000000,,2013-07-05 09:46:00,
2013-07-05 04:06:00,71.0,54.0,29.96,WNW,292,7.0,8.0,55,-99.99,,,-99.99,0.000000,,2013-07-05 10:06:00,
2013-07-05 04:16:00,71.0,54.0,29.95,West,276,6.0,8.0,55,-99.99,,,-99.99,0.000000,,2013-07-05 10:16:00,
2013-07-05 04:35:00,70.0,55.0,29.95,WSW,246,3.0,5.0,59,-99.99,,,-99.99,0.000000,,2013-07-05 10:35:00,
2013-07-05 04:57:00,70.0,56.0,29.95,WNW,292,3.0,4.0,60,-99.99,,,-99.99,0.000000,,2013-07-05 10:57:00,
2013-07-05 05:06:00,70.0,56.0,29.95,WNW,292,3.0,4.0,60,-99.99,,,-99.99,0.000000,,2013-07-05 11:06:00,
2013-07-05 05:16:00,69.0,56.0,29.95,NW,316,4.0,8.0,62,-99.99,,,-99.99,0.000000,,2013-07-05 11:16:00,
2013-07-05 05:23:00,69.0,55.0,29.95,NW,311,6.0,8.0,60,-99.99,,,-99.99,0.000000,,2013-07-05 11:23:00,
2013-07-05 05:37:00,69.0,55.0,29.95,NW,311,6.0,8.0,60,-99.99,,,-99.99,0.000000,,2013-07-05 11:37:00,
2013-07-05 05:45:00,69.0,54.0,29.95,WNW,285,4.0,6.0,59,-99.99,,,-99.99,0.000000,,2013-07-05 11:45:00,
2013-07-05 06:06:00,69.0,54.0,29.96,West,273,5.0,6.0,59,-99.99,,,-99.99,0.000000,,2013-07-05 12:06:00,
2013-07-05 06:24:00,68.0,55.0,29.96,NW,310,6.0,8.0,63,-99.99,,,-99.99,0.700000,,2013-07-05 12:24:00,
2013-07-05 06:35:00,68.0,55.0,29.96,NW,310,6.0,8.0,63,-99.99,,,-99.99,0.700000,,2013-07-05 12:35:00,
2013-07-05 07:05:00,68.0,54.0,29.96,NW,313,4.0,7.0,60,-99.99,,,-99.99,23.010000,,2013-07-05 13:05:00,
2013-07-05 07:13:00,68.0,54.0,29.96,NW,313,4.0,7.0,60,-99.99,,,-99.99,23.010000,,2013-07-05 13:13:00,
2013-07-05 07:24:00,71.0,54.0,29.97,North,2,5.0,7.0,53,-99.99,,,-99.99,101.110001,,2013-07-05 13:24:00,
2013-07-05 07:37:00,71.0,54.0,29.97,North,2,5.0,7.0,53,-99.99,,,-99.99,101.110001,,2013-07-05 13:37:00,
2013-07-05 07:47:00,73.0,53.0,29.98,NNW,348,5.0,8.0,49,-99.99,,,-99.99,141.559998,,2013-07-05 13:47:00,
2013-07-05 08:14:00,74.0,52.0,29.99,North,351,4.0,7.0,45,-99.99,,,-99.99,237.789993,,2013-07-05 14:14:00,
2013-07-05 08:26:00,76.0,51.0,29.99,North,6,2.0,4.0,42,-99.99,,,-99.99,286.600006,,2013-07-05 14:26:00,
2013-07-05 08:36:00,76.0,51.0,29.99,North,6,2.0,4.0,42,-99.99,,,-99.99,286.600006,,2013-07-05 14:36:00,
2013-07-05 09:05:00,77.0,51.0,30.00,NNE,15,6.0,8.0,41,-99.99,,,-99.99,378.649994,,2013-07-05 15:05:00,
2013-07-05 09:15:00,77.0,51.0,30.00,NNE,32,6.0,9.0,39,-99.99,,,-99.99,425.369995,,2013-07-05 15:15:00,
2013-07-05 09:33:00,79.0,50.0,30.00,NE,49,3.0,6.0,37,-99.99,,,-99.99,442.809998,,2013-07-05 15:33:00,
2013-07-05 09:43:00,80.0,50.0,30.00,East,81,3.0,6.0,36,-99.99,,,-99.99,510.450012,,2013-07-05 15:43:00,
2013-07-05 10:22:00,81.0,50.0,30.00,NE,38,4.0,8.0,34,-99.99,,,-99.99,635.969971,,2013-07-05 16:22:00,
2013-07-05 10:33:00,81.0,50.0,30.00,NE,38,4.0,8.0,34,-99.99,,,-99.99,635.969971,,2013-07-05 16:33:00,
2013-07-05 10:44:00,83.0,50.0,30.00,NNE,33,3.0,6.0,31,-99.99,,,-99.99,671.530029,,2013-07-05 16:44:00,
2013-07-05 10:53:00,83.0,49.0,30.00,ENE,63,2.0,6.0,30,-99.99,,,-99.99,707.099976,,2013-07-05 16:53:00,
2013-07-05 11:02:00,83.0,49.0,30.00,ENE,63,2.0,6.0,30,-99.99,,,-99.99,707.099976,,2013-07-05 17:02:00,
2013-07-05 11:12:00,85.0,49.0,30.00,ESE,120,2.0,6.0,29,-99.99,,,-99.99,712.669983,,2013-07-05 17:12:00,
2013-07-05 11:22:00,85.0,49.0,30.00,ESE,120,2.0,6.0,29,-99.99,,,-99.99,712.669983,,2013-07-05 17:22:00,
2013-07-05 11:33:00,85.0,49.0,30.00,ESE,120,2.0,6.0,29,-99.99,,,-99.99,712.669983,,2013-07-05 17:33:00,
2013-07-05 11:43:00,86.0,48.0,29.99,ENE,64,3.0,8.0,27,-99.99,,,-99.99,775.429993,,2013-07-05 17:43:00,
2013-07-05 11:53:00,86.0,48.0,29.99,ENE,64,3.0,8.0,27,-99.99,,,-99.99,775.429993,,2013-07-05 17:53:00,
2013-07-05 12:01:00,86.0,48.0,29.99,ENE,64,3.0,8.0,27,-99.99,,,-99.99,775.429993,,2013-07-05 18:01:00,
2013-07-05 12:11:00,87.0,48.0,29.99,SE,142,3.0,6.0,25,-99.99,,,-99.99,817.969971,,2013-07-05 18:11:00,
2013-07-05 12:22:00,87.0,48.0,29.99,SE,142,3.0,6.0,25,-99.99,,,-99.99,817.969971,,2013-07-05 18:22:00,
2013-07-05 12:33:00,88.0,48.0,29.98,ENE,66,4.0,8.0,25,-99.99,,,-99.99,838.890015,,2013-07-05 18:33:00,
2013-07-05 12:43:00,89.0,48.0,29.98,ESE,116,5.0,10.0,24,-99.99,,,-99.99,857.020020,,2013-07-05 18:43:00,
2013-07-05 12:53:00,89.0,48.0,29.97,East,94,5.0,10.0,24,-99.99,,,-99.99,870.969971,,2013-07-05 18:53:00,
2013-07-05 13:01:00,89.0,48.0,29.97,East,94,5.0,10.0,24,-99.99,,,-99.99,870.969971,,2013-07-05 19:01:00,
2013-07-05 13:12:00,91.0,49.0,29.96,ESE,115,6.0,11.0,23,-99.99,,,-99.99,884.919983,,2013-07-05 19:12:00,
2013-07-05 13:22:00,92.0,49.0,29.95,ESE,102,7.0,14.0,23,-99.99,,,-99.99,887.710022,,2013-07-05 19:22:00,
2013-07-05 13:34:00,92.0,49.0,29.95,ESE,102,7.0,14.0,23,-99.99,,,-99.99,887.710022,,2013-07-05 19:34:00,
2013-07-05 13:42:00,93.0,48.0,29.95,ESE,109,8.0,14.0,21,-99.99,,,-99.99,890.489990,,2013-07-05 19:42:00,
2013-07-05 13:53:00,93.0,47.0,29.94,East,101,9.0,17.0,20,-99.99,,,-99.99,886.309998,,2013-07-05 19:53:00,
2013-07-05 14:01:00,93.0,47.0,29.94,East,101,9.0,17.0,20,-99.99,,,-99.99,886.309998,,2013-07-05 20:01:00,
2013-07-05 14:11:00,94.0,46.0,29.93,ESE,121,11.0,21.0,19,-99.99,,,-99.99,888.400024,,2013-07-05 20:11:00,
2013-07-05 14:22:00,94.0,46.0,29.93,ESE,121,11.0,21.0,19,-99.99,,,-99.99,888.400024,,2013-07-05 20:22:00,
2013-07-05 14:33:00,94.0,46.0,29.93,ESE,121,11.0,21.0,19,-99.99,,,-99.99,888.400024,,2013-07-05 20:33:00,
2013-07-05 14:43:00,95.0,43.0,29.92,East,98,6.0,16.0,16,-99.99,,,-99.99,867.479980,,2013-07-05 20:43:00,
2013-07-05 15:01:00,96.0,42.0,29.91,SSE,152,10.0,20.0,16,-99.99,,,-99.99,855.630005,,2013-07-05 21:01:00,
2013-07-05 15:11:00,96.0,41.0,29.91,SE,138,7.0,14.0,15,-99.99,,,-99.99,834.710022,,2013-07-05 21:11:00,
2013-07-05 15:22:00,96.0,41.0,29.90,SE,136,8.0,18.0,15,-99.99,,,-99.99,822.159973,,2013-07-05 21:22:00,
2013-07-05 15:34:00,96.0,41.0,29.90,SE,136,8.0,18.0,15,-99.99,,,-99.99,822.159973,,2013-07-05 21:34:00,
2013-07-05 15:42:00,97.0,42.0,29.89,SE,137,11.0,20.0,15,-99.99,,,-99.99,812.390015,,2013-07-05 21:42:00,
2013-07-05 15:53:00,97.0,41.0,29.89,SE,144,10.0,25.0,14,-99.99,,,-99.99,776.130005,,2013-07-05 21:53:00,
2013-07-05 16:01:00,97.0,41.0,29.89,SE,144,10.0,25.0,14,-99.99,,,-99.99,776.130005,,2013-07-05 22:01:00,
2013-07-05 16:11:00,97.0,41.0,29.89,SE,144,10.0,25.0,14,-99.99,,,-99.99,776.130005,,2013-07-05 22:11:00,
2013-07-05 16:22:00,97.0,40.0,29.87,SSE,150,12.0,19.0,14,-99.99,,,-99.99,698.729980,,2013-07-05 22:22:00,
2013-07-05 16:34:00,97.0,40.0,29.87,SSE,150,12.0,19.0,14,-99.99,,,-99.99,698.729980,,2013-07-05 22:34:00,
2013-07-05 16:43:00,97.0,40.0,29.87,SSE,161,11.0,20.0,14,-99.99,,,-99.99,681.989990,,2013-07-05 22:43:00,
2013-07-05 17:02:00,97.0,40.0,29.86,SSE,149,11.0,18.0,13,-99.99,,,-99.99,642.239990,,2013-07-05 23:02:00,
2013-07-05 17:11:00,97.0,40.0,29.86,SSE,155,10.0,17.0,14,-99.99,,,-99.99,597.609985,,2013-07-05 23:11:00,
2013-07-05 17:23:00,97.0,40.0,29.86,SSE,155,10.0,17.0,14,-99.99,,,-99.99,597.609985,,2013-07-05 23:23:00,
2013-07-05 17:32:00,97.0,40.0,29.86,SSE,155,10.0,17.0,14,-99.99,,,-99.99,597.609985,,2013-07-05 23:32:00,
2013-07-05 17:43:00,97.0,41.0,29.84,SW,223,4.0,11.0,14,-99.99,,,-99.99,514.630005,,2013-07-05 23:43:00,
2013-07-05 18:01:00,97.0,41.0,29.84,South,190,4.0,12.0,14,-99.99,,,-99.99,465.820007,,2013-07-06 00:01:00,
2013-07-05 18:11:00,97.0,41.0,29.84,SSE,162,6.0,13.0,14,-99.99,,,-99.99,402.359985,,2013-07-06 00:11:00,
2013-07-05 18:22:00,97.0,41.0,29.83,SSW,205,5.0,13.0,14,-99.99,,,-99.99,291.489990,,2013-07-06 00:22:00,
2013-07-05 18:33:00,97.0,41.0,29.83,SSW,205,5.0,13.0,14,-99.99,,,-99.99,291.489990,,2013-07-06 00:33:00,
2013-07-05 18:42:00,96.0,41.0,29.83,SSW,204,5.0,14.0,15,-99.99,,,-99.99,221.050003,,2013-07-06 00:42:00,
2013-07-05 19:02:00,95.0,41.0,29.84,SSW,199,5.0,12.0,15,-99.99,,,-99.99,122.730003,,2013-07-06 01:02:00,
2013-07-05 19:12:00,95.0,39.0,29.85,SSE,147,7.0,14.0,14,-99.99,,,-99.99,144.350006,,2013-07-06 01:12:00,
2013-07-05 19:22:00,96.0,38.0,29.85,SSE,148,9.0,16.0,13,-99.99,,,-99.99,184.100006,,2013-07-06 01:22:00,
2013-07-05 19:33:00,96.0,38.0,29.85,SSE,148,9.0,16.0,13,-99.99,,,-99.99,184.100006,,2013-07-06 01:33:00,
2013-07-05 19:42:00,95.0,37.0,29.85,SE,143,7.0,14.0,13,-99.99,,,-99.99,138.070007,,2013-07-06 01:42:00,
2013-07-05 19:53:00,94.0,38.0,29.86,SE,137,8.0,16.0,13,-99.99,,,-99.99,53.000000,,2013-07-06 01:53:00,
2013-07-05 20:02:00,94.0,38.0,29.86,SE,137,8.0,16.0,13,-99.99,,,-99.99,53.000000,,2013-07-06 02:02:00,
2013-07-05 20:12:00,93.0,39.0,29.86,South,180,7.0,14.0,15,-99.99,,,-99.99,26.500000,,2013-07-06 02:12:00,
2013-07-05 20:22:00,91.0,41.0,29.87,SSW,199,4.0,8.0,17,-99.99,,,-99.99,15.340000,,2013-07-06 02:22:00,
2013-07-05 20:33:00,91.0,41.0,29.87,SSW,199,4.0,8.0,17,-99.99,,,-99.99,15.340000,,2013-07-06 02:33:00,
2013-07-05 20:43:00,90.0,44.0,29.87,South,190,4.0,7.0,20,-99.99,,,-99.99,5.580000,,2013-07-06 02:43:00,
2013-07-05 20:53:00,88.0,45.0,29.87,South,175,5.0,7.0,22,-99.99,,,-99.99,0.700000,,2013-07-06 02:53:00,
2013-07-05 21:02:00,88.0,45.0,29.87,South,175,5.0,7.0,22,-99.99,,,-99.99,0.700000,,2013-07-06 03:02:00,
2013-07-05 21:12:00,86.0,45.0,29.87,South,172,6.0,8.0,24,-99.99,,,-99.99,0.000000,,2013-07-06 03:12:00,
2013-07-05 21:34:00,87.0,43.0,29.87,South,174,7.0,11.0,21,-99.99,,,-99.99,0.000000,,2013-07-06 03:34:00,
2013-07-05 21:43:00,90.0,40.0,29.87,SSE,165,8.0,14.0,17,-99.99,,,-99.99,0.000000,,2013-07-06 03:43:00,
2013-07-05 22:02:00,90.0,41.0,29.88,SSE,168,8.0,12.0,17,-99.99,,,-99.99,0.000000,,2013-07-06 04:02:00,
2013-07-05 22:12:00,90.0,40.0,29.88,South,173,9.0,15.0,17,-99.99,,,-99.99,0.000000,,2013-07-06 04:12:00,
2013-07-05 22:22:00,89.0,44.0,29.90,WNW,287,8.0,17.0,20,-99.99,,,-99.99,0.000000,,2013-07-06 04:22:00,
2013-07-05 22:33:00,89.0,44.0,29.90,WNW,287,8.0,17.0,20,-99.99,,,-99.99,0.000000,,2013-07-06 04:33:00,
2013-07-05 22:43:00,87.0,45.0,29.90,WNW,301,10.0,19.0,23,-99.99,,,-99.99,0.000000,,2013-07-06 04:43:00,
2013-07-05 22:53:00,87.0,46.0,29.91,WNW,300,11.0,17.0,24,-99.99,,,-99.99,0.000000,,2013-07-06 04:53:00,
2013-07-05 23:02:00,87.0,46.0,29.91,WNW,300,11.0,17.0,24,-99.99,,,-99.99,0.000000,,2013-07-06 05:02:00,
2013-07-05 23:12:00,85.0,47.0,29.91,WNW,292,9.0,12.0,26,-99.99,,,-99.99,0.000000,,2013-07-06 05:12:00,
2013-07-05 23:22:00,85.0,46.0,29.92,West,281,9.0,11.0,26,-99.99,,,-99.99,0.000000,,2013-07-06 05:22:00,
2013-07-05 23:33:00,85.0,46.0,29.92,West,281,9.0,11.0,26,-99.99,,,-99.99,0.000000,,2013-07-06 05:33:00,
2013-07-05 23:42:00,86.0,46.0,29.92,West,270,10.0,16.0,24,-99.99,,,-99.99,0.000000,,2013-07-06 05:42:00,
2013-07-05 23:53:00,86.0,46.0,29.93,West,269,10.0,16.0,24,-99.99,,,-99.99,0.000000,,2013-07-06 05:53:00,